createdAt,value
2023-04-12T00:02:47.033Z,6.00
2023-04-12T00:05:13.636Z,5.63
2023-04-12T00:07:40.059Z,4.75
2023-04-12T00:10:07.553Z,6.40
2023-04-12T00:12:33.954Z,3.70
2023-04-12T00:15:02.882Z,5.82
2023-04-12T00:17:30.523Z,5.28
2023-04-12T00:19:59.023Z,5.45
2023-04-12T00:22:25.607Z,3.78
2023-04-12T00:24:53.384Z,2.97
2023-04-12T00:27:19.695Z,2.47
2023-04-12T00:29:46.046Z,2.88
2023-04-12T00:32:12.708Z,2.65
2023-04-12T00:34:39.059Z,3.78
2023-04-12T00:37:07.216Z,2.25
2023-04-12T00:39:33.586Z,2.83
2023-04-12T00:42:03.975Z,2.92
2023-04-12T00:44:32.178Z,2.45
2023-04-12T00:47:01.825Z,3.25
2023-04-12T00:49:29.322Z,5.70
2023-04-12T00:52:03.529Z,3.67
2023-04-12T00:54:39.236Z,3.60
2023-04-12T00:57:12.595Z,7.10
2023-04-12T00:59:39.131Z,5.13
2023-04-12T01:02:05.643Z,6.82
2023-04-12T01:04:35.207Z,4.22
2023-04-12T01:07:16.795Z,6.18
2023-04-12T01:09:53.295Z,4.55
2023-04-12T01:12:34.752Z,5.20
2023-04-12T01:15:06.925Z,4.45
2023-04-12T01:17:49.425Z,4.65
2023-04-12T01:23:14.682Z,3.88
2023-04-12T01:26:11.555Z,5.35
2023-04-12T01:28:45.174Z,4.82
2023-04-12T01:31:13.837Z,4.07
2023-04-12T01:33:45.108Z,6.68
2023-04-12T01:36:15.222Z,5.00
2023-04-12T01:38:47.323Z,4.80
2023-04-12T01:41:19.276Z,4.88
2023-04-12T01:43:47.005Z,2.25
2023-04-12T01:46:18.683Z,3.58
2023-04-12T01:48:56.317Z,4.32
2023-04-12T01:51:38.941Z,4.45
2023-04-12T01:54:19.584Z,4.85
2023-04-12T01:56:50.253Z,3.00
2023-04-12T02:01:45.254Z,5.45
2023-04-12T02:04:12.897Z,7.35
2023-04-12T02:06:44.155Z,3.08
2023-04-12T02:09:12.641Z,4.40
2023-04-12T02:11:41.750Z,1.80
2023-04-12T02:14:08.073Z,4.03
2023-04-12T02:16:34.558Z,2.83
2023-04-12T02:19:00.945Z,8.07
2023-04-12T02:21:27.322Z,6.10
2023-04-12T02:23:53.712Z,7.47
2023-04-12T02:26:20.029Z,5.10
2023-04-12T02:28:46.373Z,8.05
2023-04-12T02:31:12.842Z,6.43
2023-04-12T02:33:39.212Z,4.18
2023-04-12T02:36:09.529Z,7.80
2023-04-12T02:38:36.945Z,4.85
2023-04-12T02:41:04.260Z,2.47
2023-04-12T02:43:30.689Z,5.10
2023-04-12T02:45:57.141Z,2.85
2023-04-12T02:48:24.781Z,4.25
2023-04-12T02:50:51.253Z,3.03
2023-04-12T02:53:17.587Z,2.90
2023-04-12T02:55:43.936Z,4.25
2023-04-12T02:58:10.323Z,5.18
2023-04-12T03:00:38.994Z,3.08
2023-04-12T03:03:07.228Z,4.70
2023-04-12T03:05:35.991Z,4.60
2023-04-12T03:08:02.294Z,4.97
2023-04-12T03:10:34.074Z,5.32
2023-04-12T03:13:00.450Z,5.60
2023-04-12T03:15:26.809Z,3.45
2023-04-12T03:17:53.215Z,5.57
2023-04-12T03:20:19.661Z,4.05
2023-04-12T03:22:46.048Z,3.38
2023-04-12T03:25:12.382Z,4.07
2023-04-12T03:27:38.713Z,4.95
2023-04-12T03:30:06.853Z,6.15
2023-04-12T03:32:33.268Z,5.35
2023-04-12T03:34:59.824Z,5.22
2023-04-12T03:37:26.230Z,6.15
2023-04-12T03:39:52.587Z,3.63
2023-04-12T03:42:32.149Z,4.22
2023-04-12T03:44:59.689Z,3.15
2023-04-12T03:47:26.116Z,3.03
2023-04-12T03:50:10.394Z,5.03
2023-04-12T03:52:41.059Z,4.38
2023-04-12T03:55:08.246Z,5.63
2023-04-12T03:57:35.209Z,4.70
2023-04-12T04:00:01.884Z,4.30
2023-04-12T04:02:28.474Z,5.13
2023-04-12T04:04:55.175Z,4.32
2023-04-12T04:07:22.216Z,5.85
2023-04-12T04:09:50.622Z,6.05
2023-04-12T04:12:17.142Z,3.70
2023-04-12T04:14:43.870Z,4.55
2023-04-12T04:17:10.218Z,4.63
2023-04-12T04:19:36.565Z,6.47
2023-04-12T04:22:02.978Z,3.33
2023-04-12T04:24:31.843Z,4.85
2023-04-12T04:26:58.494Z,4.65
2023-04-12T04:29:25.303Z,6.55
2023-04-12T04:31:54.140Z,8.18
2023-04-12T04:34:20.598Z,6.72
2023-04-12T04:36:46.967Z,4.55
2023-04-12T04:39:15.822Z,5.63
2023-04-12T04:41:43.398Z,2.67
2023-04-12T04:44:09.751Z,5.10
2023-04-12T04:46:38.190Z,4.03
2023-04-12T04:49:08.141Z,5.55
2023-04-12T04:51:34.459Z,4.32
2023-04-12T04:54:00.821Z,3.33
2023-04-12T04:56:27.112Z,4.40
2023-04-12T04:58:55.422Z,5.30
2023-04-12T05:01:26.359Z,2.75
2023-04-12T05:03:53.894Z,4.97
2023-04-12T05:06:20.329Z,6.03
2023-04-12T05:08:46.737Z,4.65
2023-04-12T05:11:16.956Z,4.32
2023-04-12T05:13:43.349Z,6.35
2023-04-12T05:16:10.316Z,4.57
2023-04-12T05:18:39.784Z,5.85
2023-04-12T05:21:06.368Z,4.65
2023-04-12T05:23:37.065Z,6.82
2023-04-12T05:26:04.131Z,5.35
2023-04-12T05:28:30.676Z,4.57
2023-04-12T05:30:58.732Z,6.13
2023-04-12T05:33:29.896Z,5.70
2023-04-12T05:35:57.731Z,5.57
2023-04-12T05:38:24.106Z,5.90
2023-04-12T05:40:50.514Z,3.13
2023-04-12T05:43:16.938Z,4.07
2023-04-12T05:45:55.343Z,5.47
2023-04-12T05:48:25.100Z,3.13
2023-04-12T05:51:05.223Z,4.90
2023-04-12T05:53:31.539Z,4.15
2023-04-12T05:55:57.902Z,4.30
2023-04-12T05:58:28.067Z,4.22
2023-04-12T06:00:54.598Z,5.18
2023-04-12T06:03:23.756Z,4.55
2023-04-12T06:05:50.545Z,3.88
2023-04-12T06:08:16.944Z,4.97
2023-04-12T06:10:43.477Z,2.92
2023-04-12T06:13:10.158Z,4.47
2023-04-12T06:15:39.006Z,3.28
2023-04-12T06:18:08.552Z,3.63
2023-04-12T06:20:36.104Z,2.90
2023-04-12T06:23:08.131Z,3.55
2023-04-12T06:25:34.856Z,4.47
2023-04-12T06:28:02.393Z,2.90
2023-04-12T06:30:32.118Z,2.90
2023-04-12T06:32:58.483Z,3.05
2023-04-12T06:35:24.929Z,4.97
2023-04-12T06:37:51.843Z,10.00
2023-04-12T06:40:18.239Z,3.50
2023-04-12T06:42:44.611Z,3.15
2023-04-12T06:45:11.266Z,4.30
2023-04-12T06:47:37.743Z,4.85
2023-04-12T06:50:04.441Z,4.05
2023-04-12T06:52:33.418Z,3.03
2023-04-12T06:54:59.877Z,5.57
2023-04-12T06:57:26.332Z,3.28
2023-04-12T06:59:52.856Z,3.50
2023-04-12T07:02:20.763Z,3.58
2023-04-12T07:04:47.200Z,7.32
2023-04-12T07:07:13.630Z,3.80
2023-04-12T07:09:40.006Z,5.45
2023-04-12T07:12:10.283Z,5.03
2023-04-12T07:14:38.094Z,4.20
2023-04-12T07:17:04.803Z,3.22
2023-04-12T07:19:31.843Z,4.88
2023-04-12T07:21:58.552Z,6.85
2023-04-12T07:24:25.672Z,4.43
2023-04-12T07:26:55.261Z,4.72
2023-04-12T07:29:21.677Z,4.20
2023-04-12T07:31:48.124Z,4.47
2023-04-12T07:34:17.344Z,6.68
2023-04-12T07:36:44.969Z,5.32
2023-04-12T07:39:11.360Z,7.03
2023-04-12T07:41:38.736Z,8.13
2023-04-12T07:44:05.224Z,5.95
2023-04-12T07:46:32.129Z,4.32
2023-04-12T07:48:58.929Z,7.05
2023-04-12T07:51:26.680Z,7.25
2023-04-12T07:53:53.037Z,7.78
2023-04-12T07:56:19.391Z,4.65
2023-04-12T07:58:48.752Z,5.38
2023-04-12T08:01:16.179Z,5.22
2023-04-12T08:03:42.618Z,8.57
2023-04-12T08:06:11.907Z,8.45
2023-04-12T08:08:38.242Z,5.20
2023-04-12T08:11:04.950Z,11.20
2023-04-12T08:13:34.269Z,7.03
2023-04-12T08:16:10.182Z,10.25
2023-04-12T08:18:36.753Z,10.15
2023-04-12T08:21:03.328Z,6.30
2023-04-12T08:23:29.808Z,7.68
2023-04-12T08:25:58.511Z,7.95
2023-04-12T08:28:27.503Z,10.45
2023-04-12T08:30:54.046Z,13.13
2023-04-12T08:33:20.557Z,10.43
2023-04-12T08:35:48.114Z,7.72
2023-04-12T08:38:18.804Z,9.43
2023-04-12T08:40:45.155Z,6.25
2023-04-12T08:43:16.913Z,12.35
2023-04-12T08:45:43.460Z,7.88
2023-04-12T08:48:12.374Z,7.90
2023-04-12T08:50:43.393Z,10.75
2023-04-12T08:53:11.496Z,7.68
2023-04-12T08:55:43.925Z,8.10
2023-04-12T08:58:17.394Z,7.25
2023-04-12T09:00:44.866Z,9.63
2023-04-12T09:03:14.401Z,10.60
2023-04-12T09:05:41.258Z,12.13
2023-04-12T09:08:07.680Z,7.32
2023-04-12T09:10:37.865Z,10.95
2023-04-12T09:13:10.334Z,6.55
2023-04-12T09:15:36.737Z,9.02
2023-04-12T09:18:17.366Z,10.82
2023-04-12T09:20:44.166Z,8.93
2023-04-12T09:23:26.211Z,5.82
2023-04-12T09:25:52.749Z,11.88
2023-04-12T09:28:19.096Z,7.93
2023-04-12T09:30:49.767Z,11.25
2023-04-12T09:33:25.950Z,11.73
2023-04-12T09:36:00.697Z,7.00
2023-04-12T09:38:27.105Z,8.10
2023-04-12T09:40:53.527Z,5.40
2023-04-12T09:43:24.390Z,9.55
2023-04-12T09:46:07.703Z,9.00
2023-04-12T09:48:41.496Z,10.80
2023-04-12T09:51:08.389Z,6.85
2023-04-12T09:53:36.616Z,9.75
2023-04-12T09:56:03.756Z,8.15
2023-04-12T09:58:31.856Z,10.18
2023-04-12T10:01:02.561Z,8.05
2023-04-12T10:03:29.530Z,8.82
2023-04-12T10:05:55.977Z,10.32
2023-04-12T10:08:27.264Z,12.35
2023-04-12T10:10:56.459Z,6.68
2023-04-12T10:13:23.708Z,15.45
2023-04-12T10:15:51.553Z,10.20
2023-04-12T10:18:18.770Z,9.63
2023-04-12T10:20:48.882Z,10.25
2023-04-12T10:23:16.247Z,13.80
2023-04-12T10:25:46.714Z,9.32
2023-04-12T10:30:40.590Z,8.88
2023-04-12T10:33:06.916Z,7.05
2023-04-12T10:35:57.562Z,6.32
2023-04-12T10:38:24.840Z,10.10
2023-04-12T10:41:14.236Z,8.00
2023-04-12T10:43:45.342Z,9.25
2023-04-12T10:46:45.654Z,8.18
2023-04-12T10:49:23.924Z,3.50
2023-04-12T10:52:02.435Z,6.25
2023-04-12T10:54:33.331Z,13.40
2023-04-12T10:57:02.566Z,8.50
2023-04-12T10:59:52.165Z,10.88
2023-04-12T11:02:18.659Z,11.05
2023-04-12T11:05:07.883Z,9.10
2023-04-12T11:07:45.224Z,7.85
2023-04-12T11:10:16.699Z,7.40
2023-04-12T11:12:54.886Z,9.68
2023-04-12T11:15:21.336Z,11.75
2023-04-12T11:17:55.248Z,14.30
2023-04-12T11:20:26.279Z,10.00
2023-04-12T11:23:01.963Z,9.50
2023-04-12T11:25:31.743Z,9.80
2023-04-12T11:28:01.331Z,8.98
2023-04-12T11:30:27.750Z,7.38
2023-04-12T11:32:56.625Z,5.20
2023-04-12T11:35:24.222Z,6.80
2023-04-12T11:37:56.720Z,8.60
2023-04-12T11:40:23.136Z,5.25
2023-04-12T11:42:49.574Z,7.07
2023-04-12T11:45:22.178Z,6.32
2023-04-12T11:47:48.617Z,5.15
2023-04-12T11:50:27.965Z,6.50
2023-04-12T11:52:54.309Z,7.38
2023-04-12T11:55:21.997Z,4.80
2023-04-12T11:57:53.677Z,5.78
2023-04-12T12:00:22.808Z,3.92
2023-04-12T12:05:21.197Z,5.70
2023-04-12T12:07:51.814Z,4.25
2023-04-12T12:10:31.714Z,1.88
2023-04-12T12:13:00.515Z,5.22
2023-04-12T12:15:31.630Z,3.88
2023-04-12T12:17:58.205Z,6.43
2023-04-12T12:20:24.684Z,5.03
2023-04-12T12:22:51.062Z,6.88
2023-04-12T12:25:18.704Z,4.95
2023-04-12T12:27:45.505Z,4.88
2023-04-12T12:30:15.194Z,5.95
2023-04-12T12:32:41.559Z,6.75
2023-04-12T12:35:13.631Z,2.00
2023-04-12T12:37:53.641Z,3.47
2023-04-12T12:40:28.983Z,3.63
2023-04-12T12:42:56.046Z,2.80
2023-04-12T12:45:25.024Z,5.50
2023-04-12T12:48:02.488Z,1.42
2023-04-12T12:50:32.148Z,3.63
2023-04-12T12:52:59.240Z,2.10
2023-04-12T12:55:27.502Z,7.00
2023-04-12T13:00:29.538Z,3.92
2023-04-12T13:02:56.660Z,3.17
2023-04-12T13:05:23.478Z,2.90
2023-04-12T13:07:51.274Z,3.13
2023-04-12T13:10:20.305Z,1.75
2023-04-12T13:12:52.393Z,5.28
2023-04-12T13:15:23.575Z,1.33
2023-04-12T13:17:52.857Z,2.92
2023-04-12T13:20:19.625Z,3.65
2023-04-12T13:22:47.142Z,3.97
2023-04-12T13:25:19.328Z,5.85
2023-04-12T13:27:49.912Z,3.97
2023-04-12T13:30:17.451Z,4.20
2023-04-12T13:32:43.809Z,3.13
2023-04-12T13:35:13.674Z,1.73
2023-04-12T13:37:40.109Z,3.15
2023-04-12T13:40:08.027Z,2.38
2023-04-12T13:42:34.478Z,1.42
2023-04-12T13:45:02.506Z,4.38
2023-04-12T13:47:28.958Z,1.58
2023-04-12T13:49:55.434Z,1.98
2023-04-12T13:52:24.390Z,1.80
2023-04-12T13:54:50.766Z,2.08
2023-04-12T13:57:17.115Z,0.60
2023-04-12T13:59:43.415Z,2.92
2023-04-12T14:02:09.862Z,1.02
2023-04-12T14:04:36.490Z,2.10
2023-04-12T14:07:03.043Z,1.88
2023-04-12T14:09:32.061Z,0.60
2023-04-12T14:12:06.945Z,2.42
2023-04-12T14:14:36.466Z,3.55
2023-04-12T14:17:02.886Z,2.58
2023-04-12T14:19:30.960Z,2.50
2023-04-12T14:21:57.335Z,3.03
2023-04-12T14:24:23.865Z,1.95
2023-04-12T14:26:53.044Z,1.95
2023-04-12T14:29:19.536Z,2.97
2023-04-12T14:31:45.918Z,2.05
2023-04-12T14:34:13.879Z,2.70
2023-04-12T14:36:41.797Z,1.27
2023-04-12T14:39:17.735Z,4.17
2023-04-12T14:41:44.152Z,6.22
2023-04-12T14:44:15.003Z,2.95
2023-04-12T14:46:41.385Z,4.05
2023-04-12T14:49:07.972Z,4.22
2023-04-12T14:51:34.329Z,2.28
2023-04-12T14:54:08.009Z,2.22
2023-04-12T14:56:43.890Z,0.43
2023-04-12T14:59:13.760Z,2.88
2023-04-12T15:01:52.026Z,0.82
2023-04-12T15:04:18.974Z,4.32
2023-04-12T15:06:45.446Z,3.22
2023-04-12T15:09:14.219Z,1.27
2023-04-12T15:11:40.636Z,1.75
2023-04-12T15:14:06.998Z,2.30
2023-04-12T15:16:33.372Z,4.10
2023-04-12T15:19:04.012Z,1.48
2023-04-12T15:21:41.066Z,4.20
2023-04-12T15:24:10.682Z,2.08
2023-04-12T15:26:39.128Z,2.13
2023-04-12T15:29:08.184Z,2.00
2023-04-12T15:31:39.865Z,1.55
2023-04-12T15:34:08.881Z,2.00
2023-04-12T15:36:38.718Z,1.45
2023-04-12T15:39:05.139Z,2.10
2023-04-12T15:41:35.622Z,1.90
2023-04-12T15:46:28.199Z,2.60
2023-04-12T15:48:54.573Z,1.23
2023-04-12T15:51:20.917Z,1.52
2023-04-12T15:53:47.228Z,3.83
2023-04-12T15:56:14.398Z,1.58
2023-04-12T15:58:40.776Z,1.17
2023-04-12T16:01:07.219Z,1.98
2023-04-12T16:03:33.758Z,2.25
2023-04-12T16:06:00.224Z,1.50
2023-04-12T16:08:26.615Z,1.90
2023-04-12T16:10:52.917Z,1.70
2023-04-12T16:13:20.588Z,1.92
2023-04-12T16:15:48.596Z,1.60
2023-04-12T16:18:18.506Z,2.47
2023-04-12T16:20:47.945Z,2.55
2023-04-12T16:23:16.695Z,3.80
2023-04-12T16:25:43.082Z,1.15
2023-04-12T16:28:09.427Z,0.88
2023-04-12T16:30:35.827Z,2.03
2023-04-12T16:33:02.260Z,2.97
2023-04-12T16:35:28.793Z,2.38
2023-04-12T16:37:55.144Z,4.32
2023-04-12T16:40:23.858Z,3.55
2023-04-12T16:42:52.634Z,3.55
2023-04-12T16:45:19.135Z,2.60
2023-04-12T16:47:46.834Z,2.88
2023-04-12T16:50:13.566Z,3.03
2023-04-12T16:52:40.158Z,2.45
2023-04-12T16:55:10.794Z,3.75
2023-04-12T16:57:38.963Z,1.83
2023-04-12T17:00:09.215Z,4.00
2023-04-12T17:02:38.238Z,2.47
2023-04-12T17:05:07.983Z,2.55
2023-04-12T17:07:34.436Z,5.95
2023-04-12T17:10:10.240Z,2.53
2023-04-12T17:12:38.102Z,2.10
2023-04-12T17:15:12.028Z,3.85
2023-04-12T17:17:38.782Z,2.20
2023-04-12T17:20:05.839Z,2.10
2023-04-12T17:22:33.791Z,2.83
2023-04-12T17:25:00.211Z,4.93
2023-04-12T17:27:26.965Z,2.85
2023-04-12T17:29:58.133Z,3.55
2023-04-12T17:32:24.525Z,2.92
2023-04-12T17:34:55.185Z,3.22
2023-04-12T17:39:51.847Z,2.50
2023-04-12T17:42:20.079Z,2.75
2023-04-12T17:44:46.992Z,3.83
2023-04-12T17:47:14.549Z,2.15
2023-04-12T17:49:45.724Z,4.78
2023-04-12T17:52:14.604Z,2.47
2023-04-12T17:54:41.036Z,2.88
2023-04-12T17:57:07.415Z,3.13
2023-04-12T17:59:33.809Z,4.38
2023-04-12T18:02:00.654Z,3.38
2023-04-12T18:04:27.821Z,3.78
2023-04-12T18:06:55.267Z,4.95
2023-04-12T18:09:27.883Z,3.45
2023-04-12T18:11:56.742Z,5.10
2023-04-12T18:14:25.130Z,4.88
2023-04-12T18:16:51.436Z,3.75
2023-04-12T18:19:21.291Z,4.07
2023-04-12T18:21:55.087Z,4.38
2023-04-12T18:24:21.458Z,3.38
2023-04-12T18:26:47.796Z,3.53
2023-04-12T18:29:14.179Z,3.15
2023-04-12T18:31:44.384Z,5.15
2023-04-12T18:34:18.156Z,3.60
2023-04-12T18:36:45.115Z,4.45
2023-04-12T18:39:11.963Z,6.57
2023-04-12T18:41:38.267Z,3.85
2023-04-12T18:44:04.647Z,5.00
2023-04-12T18:46:31.141Z,4.72
2023-04-12T18:49:00.286Z,5.85
2023-04-12T18:51:28.753Z,4.93
2023-04-12T18:53:55.081Z,4.50
2023-04-12T18:56:23.912Z,6.97
2023-04-12T18:58:55.931Z,5.68
2023-04-12T19:01:25.968Z,6.63
2023-04-12T19:03:52.817Z,6.13
2023-04-12T19:06:19.433Z,6.03
2023-04-12T19:08:48.786Z,6.78
2023-04-12T19:11:18.117Z,6.07
2023-04-12T19:13:44.456Z,4.82
2023-04-12T19:16:16.748Z,7.45
2023-04-12T19:18:45.322Z,7.43
2023-04-12T19:21:16.479Z,5.85
2023-04-12T19:23:44.916Z,5.40
2023-04-12T19:26:11.328Z,5.60
2023-04-12T19:28:37.688Z,5.82
2023-04-12T19:31:10.533Z,5.88
2023-04-12T19:33:37.260Z,7.60
2023-04-12T19:36:03.829Z,6.35
2023-04-12T19:38:35.942Z,6.80
2023-04-12T19:41:02.252Z,2.75
2023-04-12T19:43:29.801Z,7.10
2023-04-12T19:45:56.413Z,7.93
2023-04-12T19:48:22.793Z,6.35
2023-04-12T19:50:49.466Z,5.50
2023-04-12T19:53:15.876Z,6.57
2023-04-12T19:55:42.244Z,7.97
2023-04-12T19:58:08.617Z,4.22
2023-04-12T20:00:34.933Z,4.43
2023-04-12T20:03:01.332Z,6.85
2023-04-12T20:05:28.072Z,6.38
2023-04-12T20:07:54.454Z,6.95
2023-04-12T20:10:20.828Z,5.25
2023-04-12T20:12:47.213Z,4.22
2023-04-12T20:15:14.722Z,5.18
2023-04-12T20:17:42.557Z,4.93
2023-04-12T20:20:10.714Z,3.65
2023-04-12T20:22:41.400Z,6.40
2023-04-12T20:27:34.389Z,4.32
2023-04-12T20:30:00.980Z,5.13
2023-04-12T20:32:29.727Z,3.63
2023-04-12T20:34:56.109Z,4.53
2023-04-12T20:37:22.506Z,5.03
2023-04-12T20:39:49.058Z,3.60
2023-04-12T20:42:18.016Z,5.50
2023-04-12T20:44:44.364Z,5.53
2023-04-12T20:47:10.655Z,4.65
2023-04-12T20:49:37.028Z,5.55
2023-04-12T20:52:09.120Z,3.83
2023-04-12T20:54:35.521Z,3.45
2023-04-12T20:57:02.333Z,2.38
2023-04-12T20:59:28.953Z,5.13
2023-04-12T21:01:55.485Z,4.25
2023-04-12T21:04:37.208Z,4.70
2023-04-12T21:07:03.677Z,2.88
2023-04-12T21:09:30.134Z,5.30
2023-04-12T21:11:56.513Z,4.32
2023-04-12T21:14:22.898Z,4.75
2023-04-12T21:16:49.493Z,3.22
2023-04-12T21:19:16.770Z,3.13
2023-04-12T21:21:43.123Z,2.75
2023-04-12T21:24:09.445Z,3.60
2023-04-12T21:26:35.795Z,2.03
2023-04-12T21:29:02.230Z,2.67
2023-04-12T21:31:28.781Z,1.77
2023-04-12T21:33:55.250Z,1.77
2023-04-12T21:36:23.452Z,2.65
2023-04-12T21:38:49.886Z,1.25
2023-04-12T21:41:18.814Z,5.47
2023-04-12T21:43:45.174Z,4.90
2023-04-12T21:46:11.573Z,1.92
2023-04-12T21:48:37.912Z,4.55
2023-04-12T21:51:06.723Z,2.47
2023-04-12T21:53:35.777Z,3.17
2023-04-12T21:56:02.383Z,2.13
2023-04-12T21:58:31.617Z,2.15
2023-04-12T22:00:58.075Z,3.03
2023-04-12T22:03:26.096Z,2.38
2023-04-12T22:06:03.709Z,2.95
2023-04-12T22:08:35.097Z,2.78
2023-04-12T22:11:04.071Z,2.92
2023-04-12T22:13:30.534Z,2.70
2023-04-12T22:15:56.866Z,2.13
2023-04-12T22:18:24.548Z,4.80
2023-04-12T22:20:50.877Z,1.38
2023-04-12T22:23:22.853Z,2.75
2023-04-12T22:25:51.654Z,2.83
2023-04-12T22:28:19.254Z,3.30
2023-04-12T22:30:45.634Z,1.23
2023-04-12T22:33:11.960Z,2.00
2023-04-12T22:35:38.254Z,4.65
2023-04-12T22:38:10.464Z,1.45
2023-04-12T22:40:37.941Z,1.85
2023-04-12T22:43:04.322Z,2.15
2023-04-12T22:45:30.802Z,4.40
2023-04-12T22:47:59.654Z,1.50
2023-04-12T22:50:25.994Z,1.83
2023-04-12T22:52:52.314Z,2.92
2023-04-12T22:55:18.741Z,2.50
2023-04-12T22:57:45.149Z,1.10
2023-04-12T23:00:13.436Z,2.90
2023-04-12T23:02:41.484Z,2.20
2023-04-12T23:05:10.836Z,2.30
2023-04-12T23:07:37.374Z,0.95
2023-04-12T23:10:03.973Z,1.20
2023-04-12T23:12:30.483Z,2.22
2023-04-12T23:14:56.856Z,1.08
2023-04-12T23:17:26.361Z,2.60
2023-04-12T23:19:52.722Z,3.40
2023-04-12T23:22:19.235Z,2.15
2023-04-12T23:24:47.502Z,0.90
2023-04-12T23:27:13.806Z,1.92
2023-04-12T23:29:40.714Z,1.40
2023-04-12T23:32:07.093Z,1.08
2023-04-12T23:34:33.442Z,2.03
2023-04-12T23:37:03.842Z,1.48
2023-04-12T23:39:30.214Z,2.42
2023-04-12T23:41:59.540Z,2.03
2023-04-12T23:44:25.979Z,3.40
2023-04-12T23:46:53.552Z,2.53
2023-04-12T23:49:22.746Z,2.60
2023-04-12T23:51:52.745Z,2.42
2023-04-12T23:54:19.079Z,1.73
2023-04-12T23:56:49.569Z,1.45
2023-04-12T23:59:15.922Z,2.20
